sensor_id;sensor_type;location;lat;lon;timestamp;P1;durP1;ratioP1;P2;durP2;ratioP2
26806;SDS011;14380;49.910;6.792;2023-04-10T00:02:25;7.97;;;5.90;;
26806;SDS011;14380;49.910;6.792;2023-04-10T00:04:52;7.18;;;5.95;;
26806;SDS011;14380;49.910;6.792;2023-04-10T00:07:19;6.70;;;5.60;;
26806;SDS011;14380;49.910;6.792;2023-04-10T00:09:45;7.70;;;6.05;;
26806;SDS011;14380;49.910;6.792;2023-04-10T00:12:12;6.45;;;5.40;;
26806;SDS011;14380;49.910;6.792;2023-04-10T00:14:40;9.05;;;6.70;;
26806;SDS011;14380;49.910;6.792;2023-04-10T00:17:06;11.63;;;6.63;;
26806;SDS011;14380;49.910;6.792;2023-04-10T00:19:33;8.35;;;6.57;;
26806;SDS011;14380;49.910;6.792;2023-04-10T00:21:59;8.80;;;6.38;;
26806;SDS011;14380;49.910;6.792;2023-04-10T00:24:26;11.57;;;6.38;;
26806;SDS011;14380;49.910;6.792;2023-04-10T00:26:52;9.23;;;6.32;;
26806;SDS011;14380;49.910;6.792;2023-04-10T00:29:20;11.18;;;6.80;;
26806;SDS011;14380;49.910;6.792;2023-04-10T00:31:48;9.65;;;6.57;;
26806;SDS011;14380;49.910;6.792;2023-04-10T00:34:15;9.90;;;7.30;;
26806;SDS011;14380;49.910;6.792;2023-04-10T00:36:41;10.60;;;7.50;;
26806;SDS011;14380;49.910;6.792;2023-04-10T00:39:08;9.95;;;6.50;;
26806;SDS011;14380;49.910;6.792;2023-04-10T00:41:35;8.57;;;6.63;;
26806;SDS011;14380;49.910;6.792;2023-04-10T00:44:01;10.25;;;6.75;;
26806;SDS011;14380;49.910;6.792;2023-04-10T00:46:27;11.35;;;8.02;;
26806;SDS011;14380;49.910;6.792;2023-04-10T00:48:57;9.93;;;6.93;;
26806;SDS011;14380;49.910;6.792;2023-04-10T00:51:23;12.80;;;7.47;;
26806;SDS011;14380;49.910;6.792;2023-04-10T00:53:51;9.35;;;7.05;;
26806;SDS011;14380;49.910;6.792;2023-04-10T00:56:18;9.75;;;7.03;;
26806;SDS011;14380;49.910;6.792;2023-04-10T00:58:45;8.63;;;7.20;;
26806;SDS011;14380;49.910;6.792;2023-04-10T01:01:12;7.97;;;6.55;;
26806;SDS011;14380;49.910;6.792;2023-04-10T01:03:39;8.05;;;6.43;;
26806;SDS011;14380;49.910;6.792;2023-04-10T01:06:11;8.90;;;6.70;;
26806;SDS011;14380;49.910;6.792;2023-04-10T01:08:46;8.90;;;7.13;;
26806;SDS011;14380;49.910;6.792;2023-04-10T01:11:21;9.07;;;6.82;;
26806;SDS011;14380;49.910;6.792;2023-04-10T01:14:04;10.57;;;6.97;;
26806;SDS011;14380;49.910;6.792;2023-04-10T01:16:39;9.75;;;7.40;;
26806;SDS011;14380;49.910;6.792;2023-04-10T01:19:12;9.88;;;7.18;;
26806;SDS011;14380;49.910;6.792;2023-04-10T01:21:51;8.73;;;6.80;;
26806;SDS011;14380;49.910;6.792;2023-04-10T01:24:20;8.75;;;7.10;;
26806;SDS011;14380;49.910;6.792;2023-04-10T01:27:03;10.07;;;7.03;;
26806;SDS011;14380;49.910;6.792;2023-04-10T01:29:39;8.27;;;6.50;;
26806;SDS011;14380;49.910;6.792;2023-04-10T01:32:11;10.90;;;7.15;;
26806;SDS011;14380;49.910;6.792;2023-04-10T01:34:40;8.93;;;7.00;;
26806;SDS011;14380;49.910;6.792;2023-04-10T01:37:11;7.30;;;6.38;;
26806;SDS011;14380;49.910;6.792;2023-04-10T01:39:40;9.60;;;7.20;;
26806;SDS011;14380;49.910;6.792;2023-04-10T01:42:09;9.98;;;6.88;;
26806;SDS011;14380;49.910;6.792;2023-04-10T01:44:41;8.68;;;7.03;;
26806;SDS011;14380;49.910;6.792;2023-04-10T01:47:11;9.52;;;7.53;;
26806;SDS011;14380;49.910;6.792;2023-04-10T01:49:39;15.63;;;7.82;;
26806;SDS011;14380;49.910;6.792;2023-04-10T01:52:10;7.70;;;6.35;;
26806;SDS011;14380;49.910;6.792;2023-04-10T01:54:37;9.20;;;6.97;;
26806;SDS011;14380;49.910;6.792;2023-04-10T01:57:04;11.38;;;7.78;;
26806;SDS011;14380;49.910;6.792;2023-04-10T01:59:30;9.95;;;7.15;;
26806;SDS011;14380;49.910;6.792;2023-04-10T02:01:58;8.88;;;7.00;;
26806;SDS011;14380;49.910;6.792;2023-04-10T02:04:26;9.82;;;7.05;;
26806;SDS011;14380;49.910;6.792;2023-04-10T02:06:56;9.90;;;6.72;;
26806;SDS011;14380;49.910;6.792;2023-04-10T02:09:30;11.52;;;7.10;;
26806;SDS011;14380;49.910;6.792;2023-04-10T02:12:05;9.85;;;7.43;;
26806;SDS011;14380;49.910;6.792;2023-04-10T02:14:35;9.65;;;6.93;;
26806;SDS011;14380;49.910;6.792;2023-04-10T02:17:08;9.68;;;7.53;;
26806;SDS011;14380;49.910;6.792;2023-04-10T02:19:37;9.52;;;7.15;;
26806;SDS011;14380;49.910;6.792;2023-04-10T02:22:05;9.32;;;7.03;;
26806;SDS011;14380;49.910;6.792;2023-04-10T02:24:32;9.30;;;6.85;;
26806;SDS011;14380;49.910;6.792;2023-04-10T02:27:00;9.70;;;7.63;;
26806;SDS011;14380;49.910;6.792;2023-04-10T02:29:26;9.20;;;7.35;;
26806;SDS011;14380;49.910;6.792;2023-04-10T02:31:53;10.45;;;8.02;;
26806;SDS011;14380;49.910;6.792;2023-04-10T02:34:21;11.02;;;7.82;;
26806;SDS011;14380;49.910;6.792;2023-04-10T02:36:47;9.32;;;7.00;;
26806;SDS011;14380;49.910;6.792;2023-04-10T02:39:14;8.82;;;6.38;;
26806;SDS011;14380;49.910;6.792;2023-04-10T02:41:40;10.55;;;6.32;;
26806;SDS011;14380;49.910;6.792;2023-04-10T02:44:07;8.80;;;6.97;;
26806;SDS011;14380;49.910;6.792;2023-04-10T02:46:33;9.73;;;7.38;;
26806;SDS011;14380;49.910;6.792;2023-04-10T02:49:00;10.00;;;7.70;;
26806;SDS011;14380;49.910;6.792;2023-04-10T02:51:27;9.02;;;6.90;;
26806;SDS011;14380;49.910;6.792;2023-04-10T02:53:54;9.48;;;7.32;;
26806;SDS011;14380;49.910;6.792;2023-04-10T02:56:21;11.77;;;8.02;;
26806;SDS011;14380;49.910;6.792;2023-04-10T02:58:47;10.68;;;7.15;;
26806;SDS011;14380;49.910;6.792;2023-04-10T03:01:14;10.48;;;7.63;;
26806;SDS011;14380;49.910;6.792;2023-04-10T03:03:41;9.30;;;7.10;;
26806;SDS011;14380;49.910;6.792;2023-04-10T03:06:07;13.60;;;8.57;;
26806;SDS011;14380;49.910;6.792;2023-04-10T03:08:36;10.48;;;7.80;;
26806;SDS011;14380;49.910;6.792;2023-04-10T03:11:02;9.98;;;7.65;;
26806;SDS011;14380;49.910;6.792;2023-04-10T03:13:29;10.52;;;7.40;;
26806;SDS011;14380;49.910;6.792;2023-04-10T03:15:55;9.80;;;7.47;;
26806;SDS011;14380;49.910;6.792;2023-04-10T03:18:22;11.35;;;8.60;;
26806;SDS011;14380;49.910;6.792;2023-04-10T03:20:48;10.23;;;7.80;;
26806;SDS011;14380;49.910;6.792;2023-04-10T03:23:15;8.98;;;7.30;;
26806;SDS011;14380;49.910;6.792;2023-04-10T03:25:43;11.60;;;8.73;;
26806;SDS011;14380;49.910;6.792;2023-04-10T03:28:10;11.15;;;7.97;;
26806;SDS011;14380;49.910;6.792;2023-04-10T03:30:36;10.30;;;7.53;;
26806;SDS011;14380;49.910;6.792;2023-04-10T03:33:03;10.75;;;8.52;;
26806;SDS011;14380;49.910;6.792;2023-04-10T03:35:29;9.85;;;7.53;;
26806;SDS011;14380;49.910;6.792;2023-04-10T03:37:56;10.50;;;7.32;;
26806;SDS011;14380;49.910;6.792;2023-04-10T03:40:22;11.02;;;7.78;;
26806;SDS011;14380;49.910;6.792;2023-04-10T03:42:50;9.75;;;7.40;;
26806;SDS011;14380;49.910;6.792;2023-04-10T03:45:17;9.45;;;7.00;;
26806;SDS011;14380;49.910;6.792;2023-04-10T03:47:43;9.15;;;6.68;;
26806;SDS011;14380;49.910;6.792;2023-04-10T03:50:10;10.88;;;7.57;;
26806;SDS011;14380;49.910;6.792;2023-04-10T03:52:36;10.55;;;7.90;;
26806;SDS011;14380;49.910;6.792;2023-04-10T03:55:04;9.80;;;7.43;;
26806;SDS011;14380;49.910;6.792;2023-04-10T03:57:31;12.98;;;7.85;;
26806;SDS011;14380;49.910;6.792;2023-04-10T03:59:58;11.55;;;8.02;;
26806;SDS011;14380;49.910;6.792;2023-04-10T04:02:25;10.77;;;7.30;;
26806;SDS011;14380;49.910;6.792;2023-04-10T04:04:51;8.48;;;7.28;;
26806;SDS011;14380;49.910;6.792;2023-04-10T04:07:18;9.93;;;7.50;;
26806;SDS011;14380;49.910;6.792;2023-04-10T04:09:44;11.50;;;7.07;;
26806;SDS011;14380;49.910;6.792;2023-04-10T04:12:11;12.25;;;7.60;;
26806;SDS011;14380;49.910;6.792;2023-04-10T04:14:38;12.35;;;7.10;;
26806;SDS011;14380;49.910;6.792;2023-04-10T04:17:06;9.65;;;7.13;;
26806;SDS011;14380;49.910;6.792;2023-04-10T04:19:32;8.35;;;6.72;;
26806;SDS011;14380;49.910;6.792;2023-04-10T04:21:59;9.13;;;7.18;;
26806;SDS011;14380;49.910;6.792;2023-04-10T04:24:25;8.73;;;6.80;;
26806;SDS011;14380;49.910;6.792;2023-04-10T04:26:52;10.25;;;7.53;;
26806;SDS011;14380;49.910;6.792;2023-04-10T04:29:18;9.93;;;7.38;;
26806;SDS011;14380;49.910;6.792;2023-04-10T04:31:45;8.52;;;7.03;;
26806;SDS011;14380;49.910;6.792;2023-04-10T04:34:13;12.77;;;7.85;;
26806;SDS011;14380;49.910;6.792;2023-04-10T04:36:40;13.27;;;8.02;;
26806;SDS011;14380;49.910;6.792;2023-04-10T04:39:07;10.85;;;7.93;;
26806;SDS011;14380;49.910;6.792;2023-04-10T04:41:35;10.23;;;7.75;;
26806;SDS011;14380;49.910;6.792;2023-04-10T04:44:02;9.35;;;6.90;;
26806;SDS011;14380;49.910;6.792;2023-04-10T04:46:29;10.50;;;7.13;;
26806;SDS011;14380;49.910;6.792;2023-04-10T04:48:56;11.32;;;7.43;;
26806;SDS011;14380;49.910;6.792;2023-04-10T04:51:24;9.93;;;7.68;;
26806;SDS011;14380;49.910;6.792;2023-04-10T04:53:51;11.00;;;8.10;;
26806;SDS011;14380;49.910;6.792;2023-04-10T04:56:17;9.70;;;7.07;;
26806;SDS011;14380;49.910;6.792;2023-04-10T04:58:44;12.38;;;8.52;;
26806;SDS011;14380;49.910;6.792;2023-04-10T05:01:10;12.00;;;8.38;;
26806;SDS011;14380;49.910;6.792;2023-04-10T05:03:36;10.60;;;7.68;;
26806;SDS011;14380;49.910;6.792;2023-04-10T05:06:03;10.57;;;8.13;;
26806;SDS011;14380;49.910;6.792;2023-04-10T05:08:31;9.93;;;7.97;;
26806;SDS011;14380;49.910;6.792;2023-04-10T05:10:57;11.52;;;8.02;;
26806;SDS011;14380;49.910;6.792;2023-04-10T05:13:24;10.82;;;7.57;;
26806;SDS011;14380;49.910;6.792;2023-04-10T05:15:51;11.48;;;8.05;;
26806;SDS011;14380;49.910;6.792;2023-04-10T05:18:17;10.70;;;7.78;;
26806;SDS011;14380;49.910;6.792;2023-04-10T05:20:47;11.10;;;7.60;;
26806;SDS011;14380;49.910;6.792;2023-04-10T05:23:14;16.42;;;9.02;;
26806;SDS011;14380;49.910;6.792;2023-04-10T05:25:42;11.50;;;7.97;;
26806;SDS011;14380;49.910;6.792;2023-04-10T05:28:09;10.93;;;7.95;;
26806;SDS011;14380;49.910;6.792;2023-04-10T05:30:35;9.98;;;7.85;;
26806;SDS011;14380;49.910;6.792;2023-04-10T05:33:02;10.80;;;8.20;;
26806;SDS011;14380;49.910;6.792;2023-04-10T05:35:28;12.07;;;7.95;;
26806;SDS011;14380;49.910;6.792;2023-04-10T05:37:55;11.07;;;8.48;;
26806;SDS011;14380;49.910;6.792;2023-04-10T05:40:22;15.20;;;8.85;;
26806;SDS011;14380;49.910;6.792;2023-04-10T05:42:51;13.55;;;9.15;;
26806;SDS011;14380;49.910;6.792;2023-04-10T05:45:18;10.18;;;8.13;;
26806;SDS011;14380;49.910;6.792;2023-04-10T05:47:45;10.70;;;7.65;;
26806;SDS011;14380;49.910;6.792;2023-04-10T05:50:11;11.57;;;8.45;;
26806;SDS011;14380;49.910;6.792;2023-04-10T05:52:38;11.30;;;8.07;;
26806;SDS011;14380;49.910;6.792;2023-04-10T05:55:05;11.60;;;8.15;;
26806;SDS011;14380;49.910;6.792;2023-04-10T05:57:32;10.98;;;8.15;;
26806;SDS011;14380;49.910;6.792;2023-04-10T06:00:00;12.15;;;8.10;;
26806;SDS011;14380;49.910;6.792;2023-04-10T06:02:27;11.52;;;8.65;;
26806;SDS011;14380;49.910;6.792;2023-04-10T06:04:54;11.38;;;8.48;;
26806;SDS011;14380;49.910;6.792;2023-04-10T06:07:20;11.73;;;8.55;;
26806;SDS011;14380;49.910;6.792;2023-04-10T06:09:47;11.13;;;7.65;;
26806;SDS011;14380;49.910;6.792;2023-04-10T06:12:13;9.35;;;7.28;;
26806;SDS011;14380;49.910;6.792;2023-04-10T06:14:40;9.45;;;7.05;;
26806;SDS011;14380;49.910;6.792;2023-04-10T06:17:08;10.10;;;7.50;;
26806;SDS011;14380;49.910;6.792;2023-04-10T06:19:35;9.98;;;7.30;;
26806;SDS011;14380;49.910;6.792;2023-04-10T06:22:01;13.43;;;9.07;;
26806;SDS011;14380;49.910;6.792;2023-04-10T06:24:28;14.48;;;8.95;;
26806;SDS011;14380;49.910;6.792;2023-04-10T06:26:54;11.23;;;8.07;;
26806;SDS011;14380;49.910;6.792;2023-04-10T06:29:21;12.48;;;8.52;;
26806;SDS011;14380;49.910;6.792;2023-04-10T06:31:48;12.77;;;8.57;;
26806;SDS011;14380;49.910;6.792;2023-04-10T06:34:16;10.38;;;8.18;;
26806;SDS011;14380;49.910;6.792;2023-04-10T06:36:42;9.98;;;8.13;;
26806;SDS011;14380;49.910;6.792;2023-04-10T06:39:09;9.50;;;8.15;;
26806;SDS011;14380;49.910;6.792;2023-04-10T06:41:35;9.63;;;7.47;;
26806;SDS011;14380;49.910;6.792;2023-04-10T06:44:01;11.43;;;8.13;;
26806;SDS011;14380;49.910;6.792;2023-04-10T06:46:28;11.40;;;8.25;;
26806;SDS011;14380;49.910;6.792;2023-04-10T06:48:54;8.55;;;7.57;;
26806;SDS011;14380;49.910;6.792;2023-04-10T06:51:22;10.13;;;7.82;;
26806;SDS011;14380;49.910;6.792;2023-04-10T06:53:49;12.38;;;8.30;;
26806;SDS011;14380;49.910;6.792;2023-04-10T06:56:15;10.38;;;7.85;;
26806;SDS011;14380;49.910;6.792;2023-04-10T06:58:42;10.50;;;7.53;;
26806;SDS011;14380;49.910;6.792;2023-04-10T07:01:08;12.50;;;7.80;;
26806;SDS011;14380;49.910;6.792;2023-04-10T07:03:35;9.18;;;7.70;;
26806;SDS011;14380;49.910;6.792;2023-04-10T07:06:01;7.90;;;6.70;;
26806;SDS011;14380;49.910;6.792;2023-04-10T07:08:29;8.30;;;6.47;;
26806;SDS011;14380;49.910;6.792;2023-04-10T07:10:56;9.13;;;7.18;;
26806;SDS011;14380;49.910;6.792;2023-04-10T07:13:22;7.63;;;6.53;;
26806;SDS011;14380;49.910;6.792;2023-04-10T07:15:49;9.02;;;7.18;;
26806;SDS011;14380;49.910;6.792;2023-04-10T07:18:15;7.25;;;6.43;;
26806;SDS011;14380;49.910;6.792;2023-04-10T07:20:42;9.98;;;6.82;;
26806;SDS011;14380;49.910;6.792;2023-04-10T07:23:08;12.00;;;7.32;;
26806;SDS011;14380;49.910;6.792;2023-04-10T07:25:36;7.47;;;6.47;;
26806;SDS011;14380;49.910;6.792;2023-04-10T07:28:03;6.90;;;6.20;;
26806;SDS011;14380;49.910;6.792;2023-04-10T07:30:29;8.77;;;6.88;;
26806;SDS011;14380;49.910;6.792;2023-04-10T07:32:56;7.13;;;6.30;;
26806;SDS011;14380;49.910;6.792;2023-04-10T07:35:22;6.55;;;5.85;;
26806;SDS011;14380;49.910;6.792;2023-04-10T07:37:49;7.40;;;6.43;;
26806;SDS011;14380;49.910;6.792;2023-04-10T07:40:16;7.97;;;5.93;;
26806;SDS011;14380;49.910;6.792;2023-04-10T07:42:44;6.60;;;5.90;;
26806;SDS011;14380;49.910;6.792;2023-04-10T07:45:11;6.65;;;5.95;;
26806;SDS011;14380;49.910;6.792;2023-04-10T07:47:38;7.43;;;6.45;;
26806;SDS011;14380;49.910;6.792;2023-04-10T07:50:05;9.60;;;6.50;;
26806;SDS011;14380;49.910;6.792;2023-04-10T07:52:34;6.63;;;5.93;;
26806;SDS011;14380;49.910;6.792;2023-04-10T07:55:00;6.03;;;5.43;;
26806;SDS011;14380;49.910;6.792;2023-04-10T07:57:27;6.20;;;5.60;;
26806;SDS011;14380;49.910;6.792;2023-04-10T07:59:55;9.00;;;6.00;;
26806;SDS011;14380;49.910;6.792;2023-04-10T08:02:22;6.95;;;5.75;;
26806;SDS011;14380;49.910;6.792;2023-04-10T08:04:48;10.18;;;5.50;;
26806;SDS011;14380;49.910;6.792;2023-04-10T08:07:15;5.90;;;5.25;;
26806;SDS011;14380;49.910;6.792;2023-04-10T08:09:42;5.13;;;4.63;;
26806;SDS011;14380;49.910;6.792;2023-04-10T08:12:08;6.65;;;5.53;;
26806;SDS011;14380;49.910;6.792;2023-04-10T08:14:35;6.68;;;4.90;;
26806;SDS011;14380;49.910;6.792;2023-04-10T08:17:02;5.65;;;5.07;;
26806;SDS011;14380;49.910;6.792;2023-04-10T08:19:29;5.80;;;5.05;;
26806;SDS011;14380;49.910;6.792;2023-04-10T08:21:55;5.35;;;4.85;;
26806;SDS011;14380;49.910;6.792;2023-04-10T08:24:22;5.80;;;5.18;;
26806;SDS011;14380;49.910;6.792;2023-04-10T08:26:48;5.70;;;5.00;;
26806;SDS011;14380;49.910;6.792;2023-04-10T08:29:15;6.40;;;5.20;;
26806;SDS011;14380;49.910;6.792;2023-04-10T08:31:41;5.78;;;4.80;;
26806;SDS011;14380;49.910;6.792;2023-04-10T08:34:09;6.55;;;4.70;;
26806;SDS011;14380;49.910;6.792;2023-04-10T08:36:35;4.88;;;4.38;;
26806;SDS011;14380;49.910;6.792;2023-04-10T08:39:02;5.00;;;4.50;;
26806;SDS011;14380;49.910;6.792;2023-04-10T08:41:28;6.15;;;4.65;;
26806;SDS011;14380;49.910;6.792;2023-04-10T08:43:55;6.53;;;4.75;;
26806;SDS011;14380;49.910;6.792;2023-04-10T08:46:22;5.47;;;4.55;;
26806;SDS011;14380;49.910;6.792;2023-04-10T08:48:51;4.30;;;3.90;;
26806;SDS011;14380;49.910;6.792;2023-04-10T08:51:22;4.30;;;3.90;;
26806;SDS011;14380;49.910;6.792;2023-04-10T08:53:55;6.93;;;3.90;;
26806;SDS011;14380;49.910;6.792;2023-04-10T08:56:23;4.97;;;4.25;;
26806;SDS011;14380;49.910;6.792;2023-04-10T08:58:51;5.88;;;4.43;;
26806;SDS011;14380;49.910;6.792;2023-04-10T09:01:18;5.28;;;4.78;;
26806;SDS011;14380;49.910;6.792;2023-04-10T09:03:46;4.30;;;3.90;;
26806;SDS011;14380;49.910;6.792;2023-04-10T09:06:13;4.53;;;4.00;;
26806;SDS011;14380;49.910;6.792;2023-04-10T09:08:41;4.50;;;4.10;;
26806;SDS011;14380;49.910;6.792;2023-04-10T09:11:08;4.97;;;4.07;;
26806;SDS011;14380;49.910;6.792;2023-04-10T09:13:35;4.13;;;3.72;;
26806;SDS011;14380;49.910;6.792;2023-04-10T09:16:03;4.40;;;3.97;;
26806;SDS011;14380;49.910;6.792;2023-04-10T09:18:43;6.57;;;5.38;;
26806;SDS011;14380;49.910;6.792;2023-04-10T09:21:13;5.57;;;4.25;;
26806;SDS011;14380;49.910;6.792;2023-04-10T09:23:42;4.50;;;3.78;;
26806;SDS011;14380;49.910;6.792;2023-04-10T09:26:22;4.47;;;3.85;;
26806;SDS011;14380;49.910;6.792;2023-04-10T09:29:00;4.60;;;4.20;;
26806;SDS011;14380;49.910;6.792;2023-04-10T09:31:31;4.68;;;3.92;;
26806;SDS011;14380;49.910;6.792;2023-04-10T09:34:09;7.15;;;3.97;;
26806;SDS011;14380;49.910;6.792;2023-04-10T09:36:37;4.07;;;3.67;;
26806;SDS011;14380;49.910;6.792;2023-04-10T09:39:06;4.18;;;3.80;;
26806;SDS011;14380;49.910;6.792;2023-04-10T09:41:33;4.22;;;3.47;;
26806;SDS011;14380;49.910;6.792;2023-04-10T09:44:06;3.95;;;3.58;;
26806;SDS011;14380;49.910;6.792;2023-04-10T09:46:34;4.10;;;3.63;;
26806;SDS011;14380;49.910;6.792;2023-04-10T09:49:00;4.00;;;3.60;;
26806;SDS011;14380;49.910;6.792;2023-04-10T09:51:29;4.05;;;3.55;;
26806;SDS011;14380;49.910;6.792;2023-04-10T09:53:57;3.78;;;3.47;;
26806;SDS011;14380;49.910;6.792;2023-04-10T09:56:26;3.58;;;3.28;;
26806;SDS011;14380;49.910;6.792;2023-04-10T09:58:55;3.70;;;3.33;;
26806;SDS011;14380;49.910;6.792;2023-04-10T10:01:23;3.50;;;3.20;;
26806;SDS011;14380;49.910;6.792;2023-04-10T10:03:51;3.72;;;3.42;;
26806;SDS011;14380;49.910;6.792;2023-04-10T10:06:19;3.83;;;3.28;;
26806;SDS011;14380;49.910;6.792;2023-04-10T10:08:47;3.47;;;3.08;;
26806;SDS011;14380;49.910;6.792;2023-04-10T10:11:14;3.47;;;3.17;;
26806;SDS011;14380;49.910;6.792;2023-04-10T10:13:46;3.28;;;2.97;;
26806;SDS011;14380;49.910;6.792;2023-04-10T10:16:18;3.03;;;2.70;;
26806;SDS011;14380;49.910;6.792;2023-04-10T10:18:47;3.40;;;2.92;;
26806;SDS011;14380;49.910;6.792;2023-04-10T10:21:18;3.38;;;2.80;;
26806;SDS011;14380;49.910;6.792;2023-04-10T10:23:47;3.67;;;3.03;;
26806;SDS011;14380;49.910;6.792;2023-04-10T10:26:18;3.85;;;3.25;;
26806;SDS011;14380;49.910;6.792;2023-04-10T10:28:48;3.75;;;2.80;;
26806;SDS011;14380;49.910;6.792;2023-04-10T10:31:16;3.30;;;3.00;;
26806;SDS011;14380;49.910;6.792;2023-04-10T10:33:44;3.30;;;2.85;;
26806;SDS011;14380;49.910;6.792;2023-04-10T10:36:11;4.20;;;3.13;;
26806;SDS011;14380;49.910;6.792;2023-04-10T10:38:43;3.22;;;2.90;;
26806;SDS011;14380;49.910;6.792;2023-04-10T10:41:29;3.95;;;2.97;;
26806;SDS011;14380;49.910;6.792;2023-04-10T10:44:07;3.40;;;2.90;;
26806;SDS011;14380;49.910;6.792;2023-04-10T10:46:40;3.45;;;3.15;;
26806;SDS011;14380;49.910;6.792;2023-04-10T10:49:12;3.47;;;2.92;;
26806;SDS011;14380;49.910;6.792;2023-04-10T10:51:43;3.60;;;3.03;;
26806;SDS011;14380;49.910;6.792;2023-04-10T10:54:27;4.45;;;2.70;;
26806;SDS011;14380;49.910;6.792;2023-04-10T10:56:57;3.20;;;2.60;;
26806;SDS011;14380;49.910;6.792;2023-04-10T11:02:22;2.75;;;2.50;;
26806;SDS011;14380;49.910;6.792;2023-04-10T11:04:49;2.53;;;2.30;;
26806;SDS011;14380;49.910;6.792;2023-04-10T11:07:15;2.47;;;2.28;;
26806;SDS011;14380;49.910;6.792;2023-04-10T11:09:43;2.92;;;2.70;;
26806;SDS011;14380;49.910;6.792;2023-04-10T11:12:14;2.60;;;2.40;;
26806;SDS011;14380;49.910;6.792;2023-04-10T11:14:41;3.08;;;2.30;;
26806;SDS011;14380;49.910;6.792;2023-04-10T11:17:11;2.83;;;2.30;;
26806;SDS011;14380;49.910;6.792;2023-04-10T11:19:56;2.55;;;2.35;;
26806;SDS011;14380;49.910;6.792;2023-04-10T11:22:24;2.47;;;2.28;;
26806;SDS011;14380;49.910;6.792;2023-04-10T11:24:52;2.78;;;2.10;;
26806;SDS011;14380;49.910;6.792;2023-04-10T11:27:39;2.50;;;2.30;;
26806;SDS011;14380;49.910;6.792;2023-04-10T11:30:24;3.00;;;2.50;;
26806;SDS011;14380;49.910;6.792;2023-04-10T11:32:54;2.47;;;2.28;;
26806;SDS011;14380;49.910;6.792;2023-04-10T11:35:21;2.42;;;2.22;;
26806;SDS011;14380;49.910;6.792;2023-04-10T11:37:47;2.50;;;2.30;;
26806;SDS011;14380;49.910;6.792;2023-04-10T11:40:14;3.33;;;3.03;;
26806;SDS011;14380;49.910;6.792;2023-04-10T11:42:41;5.15;;;2.30;;
26806;SDS011;14380;49.910;6.792;2023-04-10T11:45:23;2.35;;;2.15;;
26806;SDS011;14380;49.910;6.792;2023-04-10T11:47:51;4.60;;;2.33;;
26806;SDS011;14380;49.910;6.792;2023-04-10T11:50:19;2.95;;;2.55;;
26806;SDS011;14380;49.910;6.792;2023-04-10T11:52:46;2.60;;;2.40;;
26806;SDS011;14380;49.910;6.792;2023-04-10T11:55:12;4.60;;;3.28;;
26806;SDS011;14380;49.910;6.792;2023-04-10T11:57:40;2.33;;;2.13;;
26806;SDS011;14380;49.910;6.792;2023-04-10T12:00:07;5.57;;;3.38;;
26806;SDS011;14380;49.910;6.792;2023-04-10T12:02:34;2.50;;;2.30;;
26806;SDS011;14380;49.910;6.792;2023-04-10T12:05:13;3.90;;;2.72;;
26806;SDS011;14380;49.910;6.792;2023-04-10T12:07:41;4.47;;;2.90;;
26806;SDS011;14380;49.910;6.792;2023-04-10T12:10:08;3.00;;;2.75;;
26806;SDS011;14380;49.910;6.792;2023-04-10T12:12:35;3.58;;;3.28;;
26806;SDS011;14380;49.910;6.792;2023-04-10T12:15:02;4.43;;;2.70;;
26806;SDS011;14380;49.910;6.792;2023-04-10T12:17:48;2.97;;;2.67;;
26806;SDS011;14380;49.910;6.792;2023-04-10T12:20:15;2.92;;;2.60;;
26806;SDS011;14380;49.910;6.792;2023-04-10T12:22:43;3.03;;;2.72;;
26806;SDS011;14380;49.910;6.792;2023-04-10T12:25:10;3.25;;;2.65;;
26806;SDS011;14380;49.910;6.792;2023-04-10T12:27:37;3.85;;;3.30;;
26806;SDS011;14380;49.910;6.792;2023-04-10T12:30:06;3.75;;;2.92;;
26806;SDS011;14380;49.910;6.792;2023-04-10T12:32:33;3.03;;;2.30;;
26806;SDS011;14380;49.910;6.792;2023-04-10T12:34:59;2.65;;;2.45;;
26806;SDS011;14380;49.910;6.792;2023-04-10T12:40:16;3.22;;;2.92;;
26806;SDS011;14380;49.910;6.792;2023-04-10T12:42:44;2.50;;;2.30;;
26806;SDS011;14380;49.910;6.792;2023-04-10T12:45:11;2.80;;;2.60;;
26806;SDS011;14380;49.910;6.792;2023-04-10T12:47:42;4.05;;;2.67;;
26806;SDS011;14380;49.910;6.792;2023-04-10T12:50:11;2.75;;;2.42;;
26806;SDS011;14380;49.910;6.792;2023-04-10T12:52:39;2.72;;;2.30;;
26806;SDS011;14380;49.910;6.792;2023-04-10T12:55:13;4.25;;;2.67;;
26806;SDS011;14380;49.910;6.792;2023-04-10T12:57:40;3.67;;;3.17;;
26806;SDS011;14380;49.910;6.792;2023-04-10T13:00:08;3.22;;;2.75;;
26806;SDS011;14380;49.910;6.792;2023-04-10T13:02:36;2.92;;;2.47;;
26806;SDS011;14380;49.910;6.792;2023-04-10T13:05:04;3.22;;;2.47;;
26806;SDS011;14380;49.910;6.792;2023-04-10T13:07:31;3.35;;;2.78;;
26806;SDS011;14380;49.910;6.792;2023-04-10T13:09:58;2.97;;;2.40;;
26806;SDS011;14380;49.910;6.792;2023-04-10T13:12:27;3.28;;;2.50;;
26806;SDS011;14380;49.910;6.792;2023-04-10T13:14:54;2.47;;;2.17;;
26806;SDS011;14380;49.910;6.792;2023-04-10T13:17:21;3.45;;;2.47;;
26806;SDS011;14380;49.910;6.792;2023-04-10T13:19:48;4.72;;;2.78;;
26806;SDS011;14380;49.910;6.792;2023-04-10T13:22:14;2.95;;;2.53;;
26806;SDS011;14380;49.910;6.792;2023-04-10T13:24:41;7.75;;;2.60;;
26806;SDS011;14380;49.910;6.792;2023-04-10T13:27:08;2.72;;;2.50;;
26806;SDS011;14380;49.910;6.792;2023-04-10T13:29:37;4.18;;;2.33;;
26806;SDS011;14380;49.910;6.792;2023-04-10T13:32:05;3.55;;;2.40;;
26806;SDS011;14380;49.910;6.792;2023-04-10T13:34:32;2.50;;;2.20;;
26806;SDS011;14380;49.910;6.792;2023-04-10T13:36:59;4.40;;;2.83;;
26806;SDS011;14380;49.910;6.792;2023-04-10T13:39:27;3.42;;;2.20;;
26806;SDS011;14380;49.910;6.792;2023-04-10T13:41:55;2.67;;;2.22;;
26806;SDS011;14380;49.910;6.792;2023-04-10T13:44:21;4.00;;;2.83;;
26806;SDS011;14380;49.910;6.792;2023-04-10T13:46:49;5.07;;;2.55;;
26806;SDS011;14380;49.910;6.792;2023-04-10T13:49:17;2.78;;;2.42;;
26806;SDS011;14380;49.910;6.792;2023-04-10T13:51:44;2.78;;;2.38;;
26806;SDS011;14380;49.910;6.792;2023-04-10T13:54:10;4.55;;;2.08;;
26806;SDS011;14380;49.910;6.792;2023-04-10T13:56:37;2.40;;;2.20;;
26806;SDS011;14380;49.910;6.792;2023-04-10T13:59:04;3.05;;;2.45;;
26806;SDS011;14380;49.910;6.792;2023-04-10T14:01:31;2.30;;;2.10;;
26806;SDS011;14380;49.910;6.792;2023-04-10T14:03:58;3.55;;;2.70;;
26806;SDS011;14380;49.910;6.792;2023-04-10T14:06:25;1.90;;;1.70;;
26806;SDS011;14380;49.910;6.792;2023-04-10T14:08:52;2.03;;;1.80;;
26806;SDS011;14380;49.910;6.792;2023-04-10T14:11:18;3.15;;;2.00;;
26806;SDS011;14380;49.910;6.792;2023-04-10T14:13:45;2.30;;;2.10;;
26806;SDS011;14380;49.910;6.792;2023-04-10T14:16:12;2.85;;;2.15;;
26806;SDS011;14380;49.910;6.792;2023-04-10T14:18:39;2.03;;;1.83;;
26806;SDS011;14380;49.910;6.792;2023-04-10T14:21:07;3.97;;;2.03;;
26806;SDS011;14380;49.910;6.792;2023-04-10T14:23:33;3.08;;;1.92;;
26806;SDS011;14380;49.910;6.792;2023-04-10T14:26:00;3.13;;;1.85;;
26806;SDS011;14380;49.910;6.792;2023-04-10T14:28:26;4.53;;;1.70;;
26806;SDS011;14380;49.910;6.792;2023-04-10T14:30:53;2.20;;;2.00;;
26806;SDS011;14380;49.910;6.792;2023-04-10T14:33:19;2.17;;;1.98;;
26806;SDS011;14380;49.910;6.792;2023-04-10T14:35:46;3.33;;;2.00;;
26806;SDS011;14380;49.910;6.792;2023-04-10T14:38:14;1.77;;;1.67;;
26806;SDS011;14380;49.910;6.792;2023-04-10T14:40:40;4.25;;;2.30;;
26806;SDS011;14380;49.910;6.792;2023-04-10T14:43:09;5.32;;;3.90;;
26806;SDS011;14380;49.910;6.792;2023-04-10T14:45:36;6.97;;;4.25;;
26806;SDS011;14380;49.910;6.792;2023-04-10T14:48:02;2.10;;;1.77;;
26806;SDS011;14380;49.910;6.792;2023-04-10T14:50:30;2.15;;;1.65;;
26806;SDS011;14380;49.910;6.792;2023-04-10T14:52:56;2.00;;;1.73;;
26806;SDS011;14380;49.910;6.792;2023-04-10T14:55:25;3.25;;;1.73;;
26806;SDS011;14380;49.910;6.792;2023-04-10T14:57:53;2.55;;;1.77;;